Flight Track Log - Related Links

Times and Time Zones

All times are in EDT time to prevent confusion due to time zone crossing. See the N784JP flight status page for this flight to view local times or setup timezone preferences in your user account.

Time Position Orientation Groundspeed Altitude Reporting Facility
EDT Latitude Longitude Course Direction KTS MPH feet Rate Location/Type
Wed 04:37:26 PM 40.7500 -73.8333 49° Northeast 152 175 2,100  Level New York TRACON
Wed 04:38:32 PM 40.7833 -73.7833 49° Northeast 237 273 4,200 2,286 Climbing New York TRACON
Wed 04:39:32 PM 40.8500 -73.7833 360° North 222 255 6,900 2,388 Climbing New York TRACON
Wed 04:41:53 PM 40.9389 -73.8997 315° West 190 219 12,200 2,139 Climbing New York Center
Wed 04:42:54 PM 40.9836 -73.9431 324° Northwest 195 224 14,100 1,918 Climbing New York Center
Wed 04:43:55 PM 41.0281 -73.9919 320° Northwest 202 232 16,100 1,412 Climbing New York Center
Wed 04:44:53 PM 41.0789 -74.0411 324° Northwest 217 250 16,900 454 Climbing New York Center
Wed 04:45:54 PM 41.1378 -74.0964 325° Northwest 264 304 17,000 50 Climbing New York Center
Wed 04:46:53 PM 41.2106 -74.1661 324° Northwest 296 341 17,000  Level New York Center
Wed 04:47:54 PM 41.2714 -74.2272 323° Northwest 296 341 17,000 694 Level New York Center
Wed 04:48:54 PM 41.3422 -74.2972 323° Northwest 296 341 18,400 1,091 Climbing New York Center
Wed 04:49:55 PM 41.4031 -74.3528 326° Northwest 296 341 19,200 1,082 Climbing New York Center
Wed 04:50:56 PM 41.4439 -74.4408 302° West 285 328 20,600 1,729 Climbing New York Center
Wed 04:51:53 PM 41.4808 -74.5258 300° West 275 316 22,600 2,136 Climbing New York Center
Wed 04:52:54 PM 41.5156 -74.6136 298° West 260 299 24,800 1,805 Climbing New York Center
Wed 04:53:56 PM 41.5506 -74.6906 301° West 248 285 26,300 1,462 Climbing New York Center
Wed 04:54:53 PM 41.5833 -74.7672 300° West 243 280 27,700 1,322 Climbing New York Center
Wed 04:55:54 PM 41.6161 -74.8469 299° West 243 280 28,900 1,131 Climbing New York Center
Wed 04:56:55 PM 41.6528 -74.9269 302° West 250 288 30,000 1,091 Climbing New York Center
Wed 04:57:55 PM 41.6875 -75.0069 300° West 250 288 31,100 1,220 Climbing New York Center
Wed 04:58:53 PM 41.7239 -75.0925 300° West 250 288 32,400 1,261 Climbing New York Center
Wed 04:59:54 PM 41.7564 -75.1753 298° West 250 288 33,600 787 Climbing New York Center
Wed 05:00:55 PM 41.7928 -75.2583 300° West 255 293 34,000 202 Climbing New York Center
Wed 05:01:53 PM 41.8308 -75.3500 299° West 268 308 34,000  Level New York Center
Wed 05:02:53 PM 41.8728 -75.4475 300° West 289 333 34,000  Level New York Center
Wed 05:03:54 PM 41.9167 -75.5483 300° West 305 351 34,000  Level New York Center
Wed 05:04:54 PM 41.9564 -75.6514 297° West 312 359 34,000 197 Level New York Center
Wed 05:05:56 PM 41.9981 -75.7522 299° West 312 359 34,400 655 Climbing New York Center
Wed 05:06:53 PM 42.0394 -75.8531 299° West 312 359 35,300 814 Climbing New York Center
Wed 05:07:54 PM 42.0792 -75.9456 300° West 307 353 36,000 347 Climbing New York Center
Wed 05:08:54 PM 42.1189 -76.0381 300° West 302 348 36,000  Level New York Center
Wed 05:10:33 PM 42.1744 -76.1950 296° West 304 350 36,000  Level Cleveland Center
Wed 05:11:33 PM 42.2075 -76.3022 293° West 310 357 36,000  Level Cleveland Center
Wed 05:12:33 PM 42.2453 -76.4175 294° West 310 357 36,000  Level Cleveland Center
Wed 05:13:33 PM 42.2803 -76.5219 294° West 310 357 36,000  Level Cleveland Center
Wed 05:14:33 PM 42.3131 -76.6264 293° West 305 351 36,000  Level Cleveland Center
Wed 05:15:33 PM 42.3458 -76.7283 294° West 305 351 36,000  Level Cleveland Center
Wed 05:16:33 PM 42.3783 -76.8333 293° West 305 351 36,000  Level Cleveland Center
Wed 05:17:33 PM 42.4108 -76.9356 293° West 305 351 36,000 500 Level Cleveland Center
Wed 05:18:33 PM 42.4411 -77.0378 292° West 305 351 37,000 950 Climbing Cleveland Center
Wed 05:19:33 PM 42.4711 -77.1319 293° West 294 338 37,900 500 Climbing Cleveland Center
Wed 05:20:33 PM 42.5011 -77.2261 293° West 283 326 38,000 50 Climbing Cleveland Center
Wed 05:21:33 PM 42.5331 -77.3258 294° West 283 326 38,000  Level Cleveland Center
Wed 05:22:33 PM 42.5631 -77.4258 292° West 288 331 38,000  Level Cleveland Center
Wed 05:23:33 PM 42.5928 -77.5231 293° West 300 345 38,000  Level Cleveland Center
Wed 05:24:33 PM 42.6244 -77.6258 293° West 300 345 38,000  Level Cleveland Center
Wed 05:25:33 PM 42.6542 -77.7261 292° West 305 351 38,000  Level Cleveland Center
Wed 05:26:33 PM 42.6858 -77.8264 293° West 300 345 38,000  Level Cleveland Center
Wed 05:27:33 PM 42.7175 -77.9294 293° West 294 338 38,000  Level Cleveland Center
Wed 05:28:33 PM 42.7467 -78.0300 292° West 289 333 38,000  Level Cleveland Center
Wed 05:29:33 PM 42.7925 -78.1189 305° West 289 333 38,000  Level Cleveland Center
Wed 05:30:33 PM 42.8822 -78.1322 354° North 278 320 38,000  Level Cleveland Center
Wed 05:31:33 PM 42.9822 -78.1256 North 311 358 38,000  Level Cleveland Center
Wed 05:32:33 PM 43.0742 -78.1361 355° North 323 372 38,000 -100 Level Cleveland Center
Wed 05:33:33 PM 43.1383 -78.2106 320° Northwest 309 356 37,800 -550 Descending Cleveland Center
Wed 05:34:33 PM 43.1550 -78.3178 282° West 277 319 36,900 -950 Descending Cleveland Center
Wed 05:35:33 PM 43.1511 -78.4375 267° West 284 327 35,900 -1,000 Descending Cleveland Center
Wed 05:36:33 PM 43.1469 -78.5600 267° West 305 351 34,900 -950 Descending Cleveland Center
Wed 05:37:33 PM 43.1450 -78.6825 269° West 324 373 34,000 -450 Descending Cleveland Center
Wed 05:38:33 PM 43.1406 -78.8050 267° West 329 379 34,000  Level Cleveland Center
Wed 05:39:55 PM 43.1333 -78.9667 267° West 320 368 34,000  Level Toronto Center
Wed 05:40:55 PM 43.1167 -79.0833 259° West 320 368 34,000 -350 Level Toronto Center
Wed 05:41:55 PM 43.1167 -79.2000 270° West 320 368 33,300 -650 Descending Toronto Center
Wed 05:42:55 PM 43.1167 -79.3333 270° West 330 380 32,700 -800 Descending Toronto Center
Wed 05:43:55 PM 43.1000 -79.4500 259° West 330 380 31,700 -1,000 Descending Toronto Center
Wed 05:44:55 PM 43.1000 -79.5833 270° West 320 368 30,700 -1,050 Descending Toronto Center
Wed 05:45:55 PM 43.1000 -79.7000 270° West 320 368 29,600 -1,000 Descending Toronto Center
Wed 05:46:55 PM 43.0833 -79.8167 259° West 330 380 28,700 -950 Descending Toronto Center
Wed 05:47:55 PM 43.0833 -79.9500 270° West 340 391 27,700 -1,000 Descending Toronto Center
Wed 05:48:55 PM 43.0833 -80.0833 270° West 340 391 26,700 -1,000 Descending Toronto Center
Wed 05:49:55 PM 43.0833 -80.2000 270° West 340 391 25,700 -1,000 Descending Toronto Center
Wed 05:50:55 PM 43.0667 -80.3333 260° West 330 380 24,700 -850 Descending Toronto Center
Wed 05:51:55 PM 43.0667 -80.4500 270° West 320 368 24,000 -350 Descending Toronto Center
Wed 05:52:55 PM 43.0667 -80.5667 270° West 310 357 24,000  Level Toronto Center
Wed 05:53:55 PM 43.0500 -80.6833 259° West 310 357 24,000 -250 Level Toronto Center
Wed 05:54:55 PM 43.0333 -80.8167 260° West 310 357 23,500 -700 Descending Toronto Center
Wed 05:55:55 PM 43.0167 -80.9333 259° West 320 368 22,600 -950 Descending Toronto Center
Wed 05:56:55 PM 43.0000 -81.0500 259° West 310 357 21,600 -1,100 Descending Toronto Center
Wed 05:57:55 PM 42.9833 -81.1667 259° West 300 345 20,400 -1,150 Descending Toronto Center
Wed 05:58:55 PM 42.9667 -81.2500 255° West 290 334 19,300 -1,100 Descending Toronto Center
Wed 05:59:55 PM 42.9333 -81.3667 249° West 290 334 18,200 -1,100 Descending Toronto Center
Wed 06:00:55 PM 42.9167 -81.4833 259° West 290 334 17,100 -1,200 Descending Toronto Center
Wed 06:01:55 PM 42.9000 -81.5667 255° West 290 334 15,800 -1,200 Descending Toronto Center
Wed 06:02:55 PM 42.8833 -81.6833 259° West 280 322 14,700 -1,100 Descending Toronto Center
Wed 06:03:55 PM 42.8667 -81.7667 255° West 280 322 13,600 -1,041 Descending Toronto Center
Wed 06:04:33 PM 42.8533 -81.8575 259° West 280 322 13,000 -980 Descending Cleveland Center
Wed 06:05:33 PM 42.8333 -81.9592 255° West 280 322 12,000 -500 Descending Cleveland Center
Wed 06:06:33 PM 42.8114 -82.0606 254° West 280 322 12,000 -350 Level Cleveland Center
Wed 06:07:33 PM 42.7872 -82.1533 250° West 286 329 11,300 -900 Descending Cleveland Center
Wed 06:08:33 PM 42.7525 -82.2458 243° Southwest 275 316 10,200 -1,150 Descending Cleveland Center
Wed 06:09:33 PM 42.7178 -82.3325 241° Southwest 270 311 9,000 -1,213 Descending Cleveland Center
Wed 06:10:02 PM 42.6964 -82.3714 233° Southwest 276 318 8,400 -1,000 Descending Cleveland Center
Wed 06:10:33 PM 42.6789 -82.4161 242° Southwest 270 311 8,000 -1,091 Descending Cleveland Center
Wed 06:10:57 PM 42.6681 -82.4553 249° West 263 303 7,400 -1,200 Descending Cleveland Center
Wed 06:11:33 PM 42.6483 -82.5056 242° Southwest 265 305 6,800 -1,180 Descending Cleveland Center
Wed 06:11:58 PM 42.6372 -82.5447 249° West 269 310 6,200 -1,400 Descending Cleveland Center
Wed 06:12:33 PM 42.6178 -82.5947 242° Southwest 265 305 5,400 -1,258 Descending Cleveland Center
Wed 06:13:00 PM 42.6025 -82.6311 240° Southwest 235 270 4,900 -800 Descending Cleveland Center
Wed 06:13:33 PM 42.5831 -82.6672 234° Southwest 253 291 4,600 -655 Descending Cleveland Center
Wed 06:13:55 PM 42.5719 -82.6978 244° Southwest 226 260 4,300 -434 Descending Cleveland Center
Wed 06:14:56 PM 42.5333 -82.7669 233° Southwest 229 264 4,000 -146 Descending Cleveland Center
Wed 06:15:58 PM 42.4944 -82.8275 229° Southwest 199 229 4,000 -47 Level Cleveland Center
Wed 06:17:05 PM 42.4497 -82.8794 221° Southwest 194 223 3,900 -443 Descending Cleveland Center
Wed 06:18:00 PM 42.4114 -82.9172 216° Southwest 174 200 3,100 -931 Descending Cleveland Center
Wed 06:19:01 PM 42.3878 -82.9503 226° Southwest 104 120 2,100 -923 Descending Cleveland Center
Wed 06:19:57 PM 42.3872 -82.9867 269° West 117 135 1,300 -857 Descending Cleveland Center
Wed 06:21:00 PM 42.4000 -83.0000 236° Southwest  Level FlightAware Approximate
Wed 06:28:00 PM 42.4093 -83.0102 236° Southwest  Level Estimated
Wed 06:29:00 PM 42.4093 -83.0102 236° Southwest  Level Estimated

Login

Don't have an account? Register now (free) for customized features, flight alerts, and more!